W6STO-13 Weather Reports


Display with metric or nautical units.
time (UTC)temp
F
wind
direction
speed
MPH
gust
MPH
rain 1hr
in
rain 24hr
in
rain mn
in
humidity
%
barometer
mb
20200408214632 63 205 1.0 4.0 0.00 0.00 0.00 70 1008.5
20200408211608 63 160 1.0 5.0 0.00 0.00 0.00 69 1008.5
20200408210011 63 146 2.0 8.0 0.00 0.00 0.00 67 1008.4
20200408203024 66 154 1.0 4.0 0.00 0.00 0.00 64 1008.3
20200408200109 65 140 0.0 6.0 0.00 0.00 0.00 66 1008.4
20200408194540 65 121 1.0 6.0 0.00 0.00 0.00 66 1008.5
20200408191708 62 209 1.0 7.0 0.00 0.00 0.00 69 1008.7
20200408183042 60 120 2.0 6.0 0.00 0.00 0.00 74 1009.0
20200408180039 60 116 0.0 3.0 0.00 0.00 0.00 72 1008.8
20200408173048 58 221 2.0 4.0 0.00 0.00 0.00 77 1008.7
20200408171512 54 94 0.0 3.0 0.00 0.00 0.00 85 1008.9
20200408164528 52 173 0.0 3.0 0.00 0.00 0.00 87 1009.3
20200408161539 50 53 1.0 3.0 0.00 0.00 0.00 91 1009.5
20200408154622 49 171 0.0 3.0 0.00 0.00 0.00 92 1009.4
20200408153015 48 165 0.0 3.0 0.00 0.00 0.00 93 1009.5
20200408150035 44 360 0.0 1.0 0.00 0.00 0.00 94 1009.5
20200408143141 43 49 0.0 1.0 0.00 0.00 0.00 93 1009.4
20200408141607 43 360 2.0 4.0 0.00 0.00 0.00 93 1009.3
20200408134644 42 14 0.0 3.0 0.00 0.00 0.00 95 1009.3
20200408133029 42 34 1.0 4.0 0.00 0.00 0.00 95 1009.3
20200408130104 41 360 1.0 2.0 0.00 0.00 0.00 94 1009.1
20200408123027 41 351 2.0 4.0 0.00 0.00 0.00 94 1008.8
20200408120133 42 44 0.0 2.0 0.00 0.00 0.00 94 1008.8
20200408114512 41 46 1.0 3.0 0.00 0.00 0.00 95 1008.6
20200408111703 42 45 1.0 3.0 0.00 0.00 0.00 94 1008.5
20200408110034 42 36 1.0 3.0 0.00 0.00 0.00 93 1008.3
20200408103140 42 360 0.0 2.0 0.00 0.00 0.00 94 1008.3
20200408101613 42 360 0.0 2.0 0.00 0.00 0.00 93 1008.1
20200408094550 43 43 2.0 3.0 0.00 0.00 0.00 93 1007.9
20200408091715 43 48 0.0 2.0 0.00 0.00 0.00 92 1008.4
20200408090043 44 44 2.0 5.0 0.00 0.01 0.00 91 1008.4
20200408084505 44 45 0.0 4.0 0.00 0.01 0.00 91 1008.6
20200408081552 45 26 1.0 4.0 0.00 0.01 0.00 91 1008.6
20200408073055 45 342 2.0 5.0 0.00 0.01 0.01 91 1008.9
20200408070058 45 340 0.0 2.0 0.00 0.01 0.01 91 1009.5
20200408063040 46 340 0.0 2.0 0.00 0.01 0.01 90 1009.9
20200408060136 47 339 0.0 3.0 0.00 0.01 0.01 89 1010.1
20200408054650 48 360 0.0 1.0 0.00 0.01 0.01 87 1010.2
20200408053049 48 290 1.0 5.0 0.00 0.01 0.01 86 1010.2
20200408050052 48 259 1.0 3.0 0.00 0.01 0.01 87 1010.4
20200408041606 49 355 1.0 3.0 0.00 0.01 0.01 84 1011.0
20200408034643 51 360 0.0 2.0 0.00 0.01 0.01 80 1011.2
20200408033017 55 291 0.0 2.0 0.00 0.01 0.01 73 1011.2
20200408031640 55 291 1.0 4.0 0.00 0.01 0.01 72 1011.2
20200408030104 56 320 2.0 5.0 0.00 0.04 0.01 69 1011.5
20200408023143 59 260 1.0 3.0 0.00 0.04 0.01 63 1011.6
20200408020140 61 262 1.0 4.0 0.00 0.09 0.01 55 1011.9
20200408014553 61 257 2.0 8.0 0.00 0.09 0.01 55 1012.2
20200408013003 61 300 4.0 8.0 0.00 0.09 0.01 51 1012.5
20200408011627 63 302 3.0 8.0 0.00 0.09 0.01 51 1012.6
20200408010040 64 235 5.0 9.0 0.00 0.10 0.01 52 1012.7
20200408003153 63 224 4.0 11.0 0.00 0.10 0.01 54 1012.9
20200408001523 64 213 5.0 9.0 0.00 0.10 0.01 53 1012.8
20200407234524 66 228 5.0 12.0 0.00 0.10 0.01 52 1013.1
20200407231540 63 211 5.0 8.0 0.00 0.10 0.01 57 1013.0
20200407224512 69 208 4.0 10.0 0.00 0.10 0.01 49 1012.9
20200407223051 68 311 1.0 5.0 0.00 0.10 0.01 45 1013.0
20200407221643 69 277 3.0 5.0 0.00 0.10 0.01 46 1013.0